Time;durP1;ratioP1;P1;durP2;ratioP2;P2;SDS_P1;SDS_P2;PMS_P1;PMS_P2;Temp;Humidity;BMP_temperature;BMP_pressure;BME280_temperature;BME280_humidity;BME280_pressure;Samples;Min_cycle;Max_cycle;Signal;HPM_P1;HPM_P2
2023/02/09 00:00:51;;;;;;;52.10;27.30;;;;;;;-5.26;87.83;103045.70;107578;1254;88912;-58
2023/02/09 00:03:33;;;;;;;64.80;33.80;;;;;;;-5.26;87.41;103043.95;107548;1252;95730;-57
2023/02/09 00:06:16;;;;;;;66.70;32.30;;;;;;;-5.30;87.58;103044.20;107582;1253;78573;-55
2023/02/09 00:08:52;;;;;;;70.10;34.30;;;;;;;-5.34;87.58;103041.27;107585;1252;82557;-57
2023/02/09 00:14:25;;;;;;;72.10;35.90;;;;;;;-5.44;87.50;103046.51;107289;1253;86353;-56
2023/02/09 00:17:05;;;;;;;70.60;35.90;;;;;;;-5.47;87.22;103046.20;107545;1253;94585;-55
2023/02/09 00:19:44;;;;;;;76.60;34.50;;;;;;;-5.51;87.15;103052.23;107557;1253;82345;-58
2023/02/09 00:22:21;;;;;;;69.60;33.80;;;;;;;-5.54;87.45;103053.86;107576;1253;83068;-58
2023/02/09 00:24:56;;;;;;;63.00;32.00;;;;;;;-5.54;87.43;103058.42;107595;1252;98125;-58
2023/02/09 00:27:34;;;;;;;70.10;34.70;;;;;;;-5.55;87.31;103056.86;107577;1252;87707;-57
2023/02/09 00:30:11;;;;;;;69.70;33.00;;;;;;;-5.56;87.36;103060.56;107588;1253;95808;-56
2023/02/09 00:32:53;;;;;;;65.50;31.60;;;;;;;-5.54;87.35;103064.21;107574;1253;79321;-55
2023/02/09 00:35:30;;;;;;;66.00;33.20;;;;;;;-5.56;87.04;103063.54;107588;1252;80280;-55
2023/02/09 00:38:15;;;;;;;65.20;33.40;;;;;;;-5.59;87.09;103058.34;107540;1257;97850;-55
2023/02/09 00:40:56;;;;;;;67.50;33.20;;;;;;;-5.60;87.40;103057.11;107577;1253;85563;-54
2023/02/09 00:43:35;;;;;;;69.20;35.60;;;;;;;-5.64;87.29;103049.27;107427;1253;93728;-55
2023/02/09 00:46:13;;;;;;;71.40;34.50;;;;;;;-5.71;87.12;103042.34;107548;1253;78111;-55
2023/02/09 00:48:52;;;;;;;67.70;32.60;;;;;;;-5.80;87.06;103037.04;107541;1253;82262;-59
2023/02/09 00:51:34;;;;;;;70.70;33.60;;;;;;;-5.86;87.32;103033.64;107515;1253;97890;-59
2023/02/09 00:54:15;;;;;;;76.40;34.70;;;;;;;-5.89;87.19;103023.34;107570;1253;89891;-59
2023/02/09 00:56:52;;;;;;;73.60;35.60;;;;;;;-5.89;87.50;103021.23;107497;1257;94807;-59
2023/02/09 00:59:29;;;;;;;73.30;34.10;;;;;;;-5.87;87.35;103016.82;107524;1252;82036;-59
2023/02/09 01:02:09;;;;;;;69.70;32.80;;;;;;;-5.89;87.22;103011.92;107529;1252;82986;-60
2023/02/09 01:04:46;;;;;;;66.00;30.50;;;;;;;-5.88;87.22;103006.14;107581;1253;99380;-61
2023/02/09 01:07:26;;;;;;;64.20;31.30;;;;;;;-5.90;87.46;103003.36;107561;1252;87412;-61
2023/02/09 01:10:05;;;;;;;61.00;31.50;;;;;;;-5.94;87.41;103004.64;107582;1253;94110;-57
2023/02/09 01:12:42;;;;;;;65.30;31.60;;;;;;;-5.97;87.25;103004.15;107560;1253;78135;-57
2023/02/09 01:15:25;;;;;;;63.50;31.40;;;;;;;-5.98;87.36;103004.86;107568;1253;81304;-57
2023/02/09 01:18:07;;;;;;;64.50;31.50;;;;;;;-5.98;87.50;103004.50;107508;1253;97959;-57
2023/02/09 01:20:49;;;;;;;65.40;33.90;;;;;;;-6.00;87.40;103002.61;107551;1256;88693;-58
2023/02/09 01:23:29;;;;;;;67.40;33.20;;;;;;;-6.05;87.12;102999.52;107508;1254;94434;-58
2023/02/09 01:26:13;;;;;;;66.40;33.30;;;;;;;-6.08;87.13;102992.38;107511;1253;80576;-61
2023/02/09 01:28:51;;;;;;;62.70;30.10;;;;;;;-6.11;87.11;102986.45;107599;1252;79613;-60
2023/02/09 01:31:30;;;;;;;63.70;31.60;;;;;;;-6.21;87.24;102981.66;107593;1253;98207;-61
2023/02/09 01:34:07;;;;;;;62.60;31.90;;;;;;;-6.24;87.41;102978.20;107571;1253;88884;-58
2023/02/09 01:36:44;;;;;;;60.20;31.20;;;;;;;-6.24;87.37;102972.43;107550;1253;94248;-58
2023/02/09 01:39:21;;;;;;;60.80;31.20;;;;;;;-6.24;87.07;102972.06;107581;1257;80954;-58
2023/02/09 01:41:57;;;;;;;63.60;31.90;;;;;;;-6.26;87.31;102974.37;107557;1256;81009;-58
2023/02/09 01:45:21;;;;;;;62.70;31.20;;;;;;;-6.26;87.31;102964.90;107587;1254;98448;-58
2023/02/09 01:48:05;;;;;;;61.60;31.20;;;;;;;-6.27;87.21;102959.66;107532;1252;89802;-58
2023/02/09 01:50:49;;;;;;;67.50;32.80;;;;;;;-6.29;87.08;102951.61;107573;1253;94865;-60
2023/02/09 01:53:27;;;;;;;60.30;31.50;;;;;;;-6.31;87.49;102946.39;107565;1253;80236;-60
2023/02/09 01:56:15;;;;;;;62.10;31.80;;;;;;;-6.24;87.55;102942.96;107559;1253;81813;-57
2023/02/09 01:58:54;;;;;;;66.20;32.70;;;;;;;-6.16;87.58;102938.98;107570;1253;97740;-58
2023/02/09 02:01:36;;;;;;;62.80;31.30;;;;;;;-6.13;87.47;102938.60;107560;1253;89103;-57
2023/02/09 02:04:15;;;;;;;63.40;32.70;;;;;;;-6.10;87.36;102933.83;107679;1254;95139;-60
2023/02/09 02:06:55;;;;;;;62.40;31.70;;;;;;;-6.08;87.59;102929.59;107622;1251;81637;-60
2023/02/09 02:09:29;;;;;;;71.40;34.90;;;;;;;-6.05;87.36;102920.95;107634;1254;83513;-59
2023/02/09 02:12:07;;;;;;;69.00;33.00;;;;;;;-6.00;87.61;102913.85;107657;1251;97374;-59
2023/02/09 02:14:42;;;;;;;53.00;27.30;;;;;;;-5.91;87.50;102906.52;107668;1255;88657;-57
2023/02/09 02:17:33;;;;;;;61.60;32.40;;;;;;;-5.86;87.33;102897.16;107640;1251;93960;-57
2023/02/09 02:20:51;;;;;;;59.40;30.30;;;;;;;-5.80;87.72;102897.37;107641;1251;79229;-60
2023/02/09 02:23:36;;;;;;;61.20;31.00;;;;;;;-5.76;87.53;102893.09;107628;1252;82438;-61
2023/02/09 02:26:47;;;;;;;65.20;33.10;;;;;;;-5.71;87.57;102881.60;107661;1251;96185;-57
2023/02/09 02:30:01;;;;;;;64.70;31.80;;;;;;;-5.69;87.56;102871.92;107654;1253;88223;-57
2023/02/09 02:32:53;;;;;;;66.50;33.60;;;;;;;-5.60;87.59;102873.34;107527;1253;94946;-57
2023/02/09 02:35:37;;;;;;;59.90;31.40;;;;;;;-5.55;87.74;102870.80;107687;1253;82055;-61
2023/02/09 02:38:33;;;;;;;66.40;31.80;;;;;;;-5.46;87.82;102866.60;107662;1254;82945;-61
2023/02/09 02:41:22;;;;;;;68.50;32.10;;;;;;;-5.35;87.50;102855.52;107611;1253;98835;-57
2023/02/09 02:44:03;;;;;;;66.00;32.90;;;;;;;-5.27;87.77;102859.77;107650;1251;88685;-58
2023/02/09 02:46:45;;;;;;;61.60;32.30;;;;;;;-5.22;87.41;102867.39;107612;1251;96130;-57
2023/02/09 02:49:36;;;;;;;66.80;32.40;;;;;;;-5.24;87.48;102864.26;107593;1251;79234;-61
2023/02/09 02:52:15;;;;;;;66.40;33.00;;;;;;;-5.21;87.38;102864.20;107598;1254;82946;-61
2023/02/09 02:55:04;;;;;;;65.30;32.20;;;;;;;-5.18;87.22;102858.02;107645;1251;98486;-61
2023/02/09 02:57:47;;;;;;;64.50;31.30;;;;;;;-5.15;87.47;102855.48;107664;1253;89502;-61
2023/02/09 03:00:28;;;;;;;60.80;32.00;;;;;;;-5.13;87.92;102854.23;107660;1251;93890;-58
2023/02/09 03:03:10;;;;;;;59.00;31.20;;;;;;;-5.08;87.83;102848.48;107627;1256;79901;-58
2023/02/09 03:05:47;;;;;;;62.70;31.70;;;;;;;-5.04;87.64;102843.14;107716;1253;80703;-58
2023/02/09 03:08:30;;;;;;;64.20;33.10;;;;;;;-5.00;87.37;102831.83;107623;1252;99027;-58
2023/02/09 03:11:12;;;;;;;60.40;31.20;;;;;;;-4.99;87.47;102827.23;107663;1254;88695;-57
2023/02/09 03:14:21;;;;;;;60.10;31.10;;;;;;;-4.97;87.41;102820.52;107631;1251;93984;-60
2023/02/09 03:17:13;;;;;;;57.40;29.70;;;;;;;-4.99;87.04;102814.39;107614;1251;79517;-61
2023/02/09 03:19:59;;;;;;;62.30;31.60;;;;;;;-5.00;87.41;102812.31;107667;1251;82092;-60
2023/02/09 03:22:43;;;;;;;65.80;31.20;;;;;;;-5.01;86.93;102810.40;107584;1253;98318;-61
2023/02/09 03:25:24;;;;;;;64.50;30.30;;;;;;;-5.03;87.00;102812.20;107648;1252;88218;-58
2023/02/09 03:28:09;;;;;;;59.80;30.30;;;;;;;-4.99;87.07;102814.76;107624;1254;94530;-58
2023/02/09 03:30:54;;;;;;;63.30;30.90;;;;;;;-4.97;87.19;102813.50;107710;1252;78103;-58
2023/02/09 03:33:34;;;;;;;57.70;29.20;;;;;;;-4.97;87.37;102811.73;107688;1254;82247;-58
2023/02/09 03:36:18;;;;;;;60.10;31.20;;;;;;;-5.01;87.03;102811.09;107660;1251;96921;-57
2023/02/09 03:39:00;;;;;;;58.40;29.80;;;;;;;-4.99;87.14;102817.73;107686;1255;88717;-58
2023/02/09 03:41:37;;;;;;;63.70;31.30;;;;;;;-4.97;86.99;102815.42;107614;1251;95627;-57
2023/02/09 03:44:27;;;;;;;61.10;30.90;;;;;;;-4.98;86.84;102815.61;107663;1251;79977;-57
2023/02/09 03:47:05;;;;;;;58.70;30.30;;;;;;;-4.98;87.00;102820.89;107615;1251;82248;-57
2023/02/09 03:49:44;;;;;;;62.70;31.10;;;;;;;-4.96;87.02;102823.13;107682;1255;98885;-57
2023/02/09 03:52:25;;;;;;;59.30;30.60;;;;;;;-4.90;86.78;102825.46;107586;1251;85845;-55
2023/02/09 03:55:06;;;;;;;62.70;31.40;;;;;;;-4.90;86.68;102823.54;107657;1254;94406;-58
2023/02/09 03:57:42;;;;;;;60.00;31.50;;;;;;;-4.88;86.91;102824.19;107671;1254;79945;-57
2023/02/09 04:00:19;;;;;;;58.80;30.50;;;;;;;-4.88;86.91;102821.54;107738;1251;81556;-57
2023/02/09 04:03:00;;;;;;;55.60;30.20;;;;;;;-4.88;86.68;102820.85;107650;1254;97706;-57
2023/02/09 04:05:39;;;;;;;59.90;31.20;;;;;;;-4.90;86.71;102825.11;107724;1251;89347;-60
2023/02/09 04:08:18;;;;;;;58.40;30.10;;;;;;;-4.96;86.91;102818.91;107650;1251;95609;-61
2023/02/09 04:11:00;;;;;;;54.90;28.90;;;;;;;-4.99;86.70;102819.85;107600;1251;80085;-60
2023/02/09 04:13:37;;;;;;;55.60;29.10;;;;;;;-5.01;86.54;102821.11;107650;1251;83276;-60
2023/02/09 04:16:12;;;;;;;61.30;30.30;;;;;;;-5.04;86.58;102817.33;107662;1251;98952;-61
2023/02/09 04:18:55;;;;;;;57.20;29.80;;;;;;;-5.04;86.77;102818.39;107675;1251;89444;-58
2023/02/09 04:21:32;;;;;;;;;;;;;;;-5.02;86.81;102816.05;107655;1251;95497;-58
2023/02/09 04:24:20;;;;;;;56.20;28.20;;;;;;;-5.04;86.88;102811.52;107693;1254;79901;-60
2023/02/09 04:27:04;;;;;;;56.90;29.40;;;;;;;-5.07;86.77;102813.17;107661;1255;80697;-59
2023/02/09 04:29:50;;;;;;;57.10;29.20;;;;;;;-5.12;86.83;102812.04;107460;1254;307690;-57
2023/02/09 04:32:33;;;;;;;57.10;28.60;;;;;;;-5.13;86.80;102814.86;107664;1256;87840;-57
2023/02/09 04:35:08;;;;;;;56.30;30.10;;;;;;;-5.18;86.83;102809.70;107703;1251;95668;-57
2023/02/09 04:37:48;;;;;;;62.80;30.50;;;;;;;-5.21;86.58;102809.93;107695;1250;81961;-57
2023/02/09 04:40:30;;;;;;;59.10;30.50;;;;;;;-5.18;86.73;102811.11;107699;1251;82746;-60
2023/02/09 04:43:09;;;;;;;54.30;28.50;;;;;;;-5.17;86.75;102808.47;107700;1251;98864;-59
2023/02/09 04:45:54;;;;;;;55.40;29.20;;;;;;;-5.16;86.58;102803.00;107733;1256;88878;-60
2023/02/09 04:48:36;;;;;;;54.70;27.80;;;;;;;-5.20;86.60;102800.45;107703;1251;92878;-59
2023/02/09 04:51:12;;;;;;;;;;;;;;;-5.26;86.70;102800.39;107685;1251;79064;-61
2023/02/09 04:53:59;;;;;;;52.70;27.90;;;;;;;-5.35;86.54;102797.91;107733;1251;82637;-60
2023/02/09 04:56:41;;;;;;;54.20;28.70;;;;;;;-5.39;86.43;102802.91;107704;1251;98248;-60
2023/02/09 04:59:40;;;;;;;58.00;29.50;;;;;;;-5.45;86.41;102801.45;107732;1255;87493;-60
2023/02/09 05:02:20;;;;;;;57.90;29.10;;;;;;;-5.48;86.32;102802.91;107660;1254;94701;-60
2023/02/09 05:05:05;;;;;;;58.50;30.10;;;;;;;-5.57;86.10;102798.86;107690;1255;82139;-55
2023/02/09 05:07:48;;;;;;;58.00;29.40;;;;;;;-5.64;86.29;102795.66;107708;1251;82812;-56
2023/02/09 05:10:32;;;;;;;52.20;27.70;;;;;;;-5.74;86.03;102793.06;107696;1251;99230;-55
2023/02/09 05:13:14;;;;;;;51.20;28.10;;;;;;;-5.80;86.28;102785.27;107662;1251;89381;-55
2023/02/09 05:15:51;;;;;;;56.20;30.80;;;;;;;-5.79;86.31;102789.98;107670;1251;96070;-58
2023/02/09 05:18:36;;;;;;;58.30;29.20;;;;;;;-5.84;86.60;102785.85;107643;1256;78846;-57
2023/02/09 05:21:13;;;;;;;56.50;28.70;;;;;;;-5.91;86.44;102780.94;107689;1254;83327;-58
2023/02/09 05:23:50;;;;;;;53.50;28.40;;;;;;;-6.03;86.35;102782.02;107727;1251;98787;-58
2023/02/09 05:26:29;;;;;;;56.50;28.90;;;;;;;-6.12;86.20;102776.90;107673;1251;88560;-58
2023/02/09 05:29:06;;;;;;;59.00;28.30;;;;;;;-6.23;86.26;102781.30;107675;1251;94977;-56
2023/02/09 05:31:43;;;;;;;61.30;30.10;;;;;;;-6.26;86.51;102787.66;107642;1251;82293;-56
2023/02/09 05:34:28;;;;;;;58.10;30.00;;;;;;;-6.25;86.55;102794.14;107695;1251;83097;-57
2023/02/09 05:37:10;;;;;;;61.80;30.40;;;;;;;-6.31;86.44;102782.81;107654;1255;97148;-56
2023/02/09 05:39:51;;;;;;;59.30;28.00;;;;;;;-6.35;86.27;102781.14;107659;1251;89037;-59
2023/02/09 05:42:30;;;;;;;56.00;28.70;;;;;;;-6.40;86.32;102785.42;107571;1256;94242;-58
2023/02/09 05:45:08;;;;;;;57.60;27.80;;;;;;;-6.43;86.48;102778.98;107724;1251;80982;-58
2023/02/09 05:47:51;;;;;;;62.60;31.50;;;;;;;-6.37;86.76;102783.11;107702;1255;82372;-57
2023/02/09 05:50:34;;;;;;;63.90;31.00;;;;;;;-6.38;86.41;102777.85;107686;1251;98254;-58
2023/02/09 05:53:14;;;;;;;61.20;30.40;;;;;;;-6.45;86.69;102776.58;107638;1255;89179;-58
2023/02/09 05:55:49;;;;;;;58.80;27.90;;;;;;;-6.52;86.56;102775.63;107713;1251;95051;-56
2023/02/09 05:58:25;;;;;;;;;;;;;;;-6.55;86.76;102774.45;107690;1251;78838;-56
2023/02/09 06:01:06;;;;;;;59.90;29.30;;;;;;;-6.62;86.52;102772.43;107717;1251;82383;-59
2023/02/09 06:03:51;;;;;;;55.10;25.90;;;;;;;-6.66;86.63;102768.46;107676;1251;97030;-58
2023/02/09 06:06:28;;;;;;;63.80;30.60;;;;;;;-6.71;86.48;102763.29;107689;1256;88954;-59
2023/02/09 06:09:05;;;;;;;65.40;31.00;;;;;;;-6.71;86.72;102756.61;107684;1251;93478;-58
2023/02/09 06:11:43;;;;;;;58.00;29.40;;;;;;;-6.73;86.65;102752.97;107665;1251;81605;-59
2023/02/09 06:14:17;;;;;;;63.30;30.40;;;;;;;-6.71;86.83;102758.39;107660;1256;83059;-56
2023/02/09 06:16:59;;;;;;;64.50;30.50;;;;;;;-6.69;86.60;102754.84;107676;1251;97973;-59
2023/02/09 06:19:38;;;;;;;66.50;29.30;;;;;;;-6.64;86.92;102755.29;107755;1255;88508;-56
2023/02/09 06:22:16;;;;;;;62.90;30.40;;;;;;;-6.62;87.03;102755.42;107610;1251;94975;-59
2023/02/09 06:24:51;;;;;;;62.20;30.40;;;;;;;-6.62;86.84;102755.96;107722;1256;82280;-57
2023/02/09 06:27:30;;;;;;;61.30;30.50;;;;;;;-6.63;86.87;102755.98;107645;1251;82308;-59
2023/02/09 06:30:10;;;;;;;63.50;29.60;;;;;;;-6.62;86.97;102755.63;107603;1251;97092;-59
2023/02/09 06:32:49;;;;;;;63.20;31.00;;;;;;;-6.59;87.07;102753.82;107701;1251;87976;-57
2023/02/09 06:35:28;;;;;;;61.20;29.80;;;;;;;-6.59;86.83;102757.50;107657;1250;95544;-57
2023/02/09 06:38:04;;;;;;;58.70;28.90;;;;;;;-6.60;86.93;102755.77;107679;1251;79614;-57
2023/02/09 06:40:44;;;;;;;60.20;31.20;;;;;;;-6.59;87.00;102762.40;107651;1251;80846;-56
2023/02/09 06:43:26;;;;;;;64.20;30.60;;;;;;;-6.56;86.88;102756.75;107657;1251;96002;-58
2023/02/09 06:46:10;;;;;;;66.80;31.40;;;;;;;-6.53;86.99;102758.28;107661;1255;87161;-55
2023/02/09 06:48:45;;;;;;;64.30;30.90;;;;;;;-6.51;87.10;102759.48;107682;1255;94177;-57
2023/02/09 06:51:21;;;;;;;62.10;29.40;;;;;;;-6.44;86.92;102756.73;107609;1256;80909;-57
2023/02/09 06:54:04;;;;;;;63.00;31.70;;;;;;;-6.37;87.04;102753.64;107705;1251;82508;-57
2023/02/09 06:56:48;;;;;;;61.90;31.00;;;;;;;-6.26;87.06;102749.61;107673;1251;98762;-55
2023/02/09 06:59:26;;;;;;;68.50;32.70;;;;;;;-6.00;87.11;102756.86;107721;1255;89465;-58
2023/02/09 07:02:04;;;;;;;64.70;32.90;;;;;;;-5.24;87.45;102755.02;107670;1255;93551;-56
2023/02/09 07:04:40;;;;;;;63.30;33.40;;;;;;;-4.22;87.31;102744.07;107727;1254;80612;-57
2023/02/09 07:07:23;;;;;;;59.50;32.60;;;;;;;-2.73;87.42;102743.02;107621;1251;82981;-57
2023/02/09 07:10:02;;;;;;;61.30;34.40;;;;;;;-1.35;86.99;102740.77;107763;1251;98687;-59
2023/02/09 07:12:46;;;;;;;61.10;35.20;;;;;;;-0.32;86.72;102732.67;107704;1251;88106;-57
2023/02/09 07:15:22;;;;;;;65.70;34.80;;;;;;;0.61;86.36;102733.81;107686;1255;95081;-56
2023/02/09 07:18:02;;;;;;;60.40;34.50;;;;;;;1.10;85.76;102729.23;107637;1251;77649;-57
2023/02/09 17:10:13;;;;;;;34.10;17.50;;;;;;;-1.45;65.48;102183.72;103822;1295;600273;-54
2023/02/09 17:12:55;;;;;;;33.30;18.00;;;;;;;-1.49;65.50;102180.16;106680;1264;80676;-55
2023/02/09 17:15:39;;;;;;;35.80;17.70;;;;;;;-1.49;65.35;102174.88;106600;1271;82274;-55
2023/02/09 17:18:21;;;;;;;36.20;18.70;;;;;;;-1.49;65.61;102176.67;106848;1264;96827;-56
2023/02/09 17:21:00;;;;;;;39.60;17.80;;;;;;;-1.50;65.43;102169.64;106853;1266;88668;-56
2023/02/09 17:23:39;;;;;;;37.60;18.90;;;;;;;-1.50;65.52;102170.17;106401;1261;559063;-56
2023/02/09 17:26:14;;;;;;;35.20;17.30;;;;;;;-1.51;65.53;102161.73;106991;1260;78870;-57
2023/02/09 17:28:54;;;;;;;37.30;19.70;;;;;;;-1.54;65.64;102162.77;107029;1260;80813;-55
2023/02/09 17:31:35;;;;;;;34.40;18.40;;;;;;;-1.56;65.61;102159.47;107263;1257;96410;-57
2023/02/09 17:34:17;;;;;;;35.20;19.10;;;;;;;-1.60;65.67;102155.79;107308;1257;88724;-56
2023/02/09 17:36:53;;;;;;;37.60;18.70;;;;;;;-1.63;65.58;102154.14;107266;1260;93764;-56
2023/02/09 17:39:31;;;;;;;35.60;19.50;;;;;;;-1.61;65.79;102154.22;107258;1257;79780;-54
2023/02/09 17:42:06;;;;;;;37.90;20.50;;;;;;;-1.62;65.69;102154.65;107516;1254;80987;-54
2023/02/09 17:44:43;;;;;;;37.60;20.10;;;;;;;-1.63;65.77;102153.80;107494;1259;98340;-57
2023/02/09 17:47:20;;;;;;;40.10;20.90;;;;;;;-1.58;65.71;102148.62;107548;1254;88457;-58
2023/02/09 17:50:02;;;;;;;34.80;18.20;;;;;;;-1.59;65.77;102143.02;107478;1255;94751;-55
2023/02/09 17:52:48;;;;;;;37.50;19.10;;;;;;;-1.62;65.87;102139.42;107484;1254;80446;-58
2023/02/09 17:55:32;;;;;;;35.20;19.30;;;;;;;-1.64;65.82;102135.14;107500;1258;83052;-57
2023/02/09 17:58:14;;;;;;;37.70;18.90;;;;;;;-1.68;65.99;102133.56;107549;1254;95988;-55
2023/02/09 18:00:59;;;;;;;31.80;17.50;;;;;;;-1.71;65.97;102130.30;107302;1254;87909;-56
2023/02/09 18:03:36;;;;;;;33.50;19.60;;;;;;;-1.75;66.01;102126.08;107506;1254;93981;-55
2023/02/09 18:06:21;;;;;;;37.00;18.90;;;;;;;-1.75;66.03;102116.71;107534;1255;79081;-55
2023/02/09 18:08:59;;;;;;;37.00;19.90;;;;;;;-1.73;66.11;102113.99;107443;1257;82508;-56
2023/02/09 18:12:03;;;;;;;38.10;19.30;;;;;;;-1.72;66.01;102110.58;107405;1257;97558;-56
2023/02/09 18:14:43;;;;;;;34.00;18.60;;;;;;;-1.72;66.22;102106.16;107429;1259;88840;-54
2023/02/09 18:17:24;;;;;;;33.10;17.40;;;;;;;-1.74;66.23;102102.38;107430;1254;95502;-54
2023/02/09 18:20:05;;;;;;;35.40;18.50;;;;;;;-1.75;66.25;102098.52;107370;1257;80652;-59
2023/02/09 18:22:44;;;;;;;33.20;19.00;;;;;;;-1.74;66.25;102092.86;107480;1254;81678;-69
2023/02/09 18:25:30;;;;;;;34.20;18.70;;;;;;;-1.75;66.36;102090.06;107426;1257;97491;-60
2023/02/09 18:28:08;;;;;;;34.70;19.60;;;;;;;-1.78;66.22;102085.94;107439;1259;89402;-59
2023/02/09 18:30:46;;;;;;;38.90;19.20;;;;;;;-1.74;66.28;102088.09;107397;1258;95036;-57
2023/02/09 18:33:25;;;;;;;33.50;18.70;;;;;;;-1.74;66.35;102086.30;107466;1255;80257;-58
2023/02/09 18:36:06;;;;;;;36.60;19.20;;;;;;;-1.72;66.39;102087.45;107272;1257;81920;-58
2023/02/09 18:38:41;;;;;;;37.70;19.80;;;;;;;-1.72;66.49;102086.21;107224;1261;98275;-54
2023/02/09 18:41:22;;;;;;;40.80;21.10;;;;;;;-1.68;66.29;102086.72;107247;1256;89480;-57
2023/02/09 18:44:00;;;;;;;34.30;18.10;;;;;;;-1.66;66.27;102087.34;107244;1260;94860;-57
2023/02/09 18:46:42;;;;;;;32.80;17.80;;;;;;;-1.65;66.42;102081.66;107247;1257;79650;-57
2023/02/09 18:49:21;;;;;;;36.00;18.60;;;;;;;-1.66;66.52;102080.30;107279;1256;83091;-58
2023/02/09 18:52:03;;;;;;;33.50;18.80;;;;;;;-1.67;66.44;102077.34;107237;1260;97646;-59
2023/02/09 18:54:40;;;;;;;34.20;18.00;;;;;;;-1.67;66.61;102073.63;107253;1256;88588;-56
2023/02/09 18:57:20;;;;;;;39.10;19.60;;;;;;;-1.65;66.34;102067.71;107231;1262;94375;-57
2023/02/09 18:59:55;;;;;;;36.10;19.20;;;;;;;-1.65;66.41;102068.06;107215;1256;80476;-57
2023/02/09 19:02:32;;;;;;;37.90;19.90;;;;;;;-1.66;66.44;102064.04;107282;1256;82664;-61
2023/02/09 19:05:08;;;;;;;34.80;19.30;;;;;;;-1.68;66.66;102058.98;107252;1260;97918;-59
2023/02/09 19:07:46;;;;;;;36.20;19.20;;;;;;;-1.69;66.58;102056.08;107268;1259;89214;-60
2023/02/09 19:10:23;;;;;;;42.30;22.10;;;;;;;-1.71;66.71;102057.37;107365;1259;95329;-61
2023/02/09 19:13:03;;;;;;;41.30;21.20;;;;;;;-1.68;66.36;102051.23;107377;1254;80238;-58
2023/02/09 19:15:41;;;;;;;36.70;18.60;;;;;;;-1.66;66.51;102053.60;107413;1257;81017;-59
2023/02/09 19:18:18;;;;;;;34.80;17.90;;;;;;;-1.68;66.57;102047.73;107395;1259;98158;-60
2023/02/09 19:21:06;;;;;;;37.60;19.90;;;;;;;-1.71;66.76;102043.45;107419;1256;86725;-59
2023/02/09 19:23:42;;;;;;;35.50;18.80;;;;;;;-1.72;66.81;102041.54;107417;1255;93945;-61
2023/02/09 19:26:17;;;;;;;39.80;20.00;;;;;;;-1.73;66.77;102046.36;107380;1259;80810;-63
2023/02/09 19:28:57;;;;;;;36.90;19.80;;;;;;;-1.75;66.90;102047.14;107439;1259;81906;-58
2023/02/09 19:31:41;;;;;;;36.60;18.60;;;;;;;-1.76;66.86;102045.05;107345;1259;97981;-58
2023/02/09 19:34:25;;;;;;;35.50;20.00;;;;;;;-1.78;66.96;102048.52;107393;1259;88589;-57
2023/02/09 19:37:04;;;;;;;35.30;18.90;;;;;;;-1.79;66.93;102047.17;107378;1259;94808;-60
2023/02/09 19:39:40;;;;;;;48.90;27.50;;;;;;;-1.80;66.89;102043.48;107396;1257;79847;-58
2023/02/09 19:42:19;;;;;;;40.40;23.30;;;;;;;-1.84;66.96;102046.48;107389;1259;83471;-60
2023/02/09 19:44:59;;;;;;;60.10;28.40;;;;;;;-1.86;67.05;102045.89;107385;1258;97868;-58
2023/02/09 19:47:40;;;;;;;41.60;22.90;;;;;;;-1.86;67.09;102043.57;107296;1260;88359;-60
2023/02/09 19:50:15;;;;;;;45.90;24.70;;;;;;;-1.86;67.04;102038.98;107375;1258;94891;-60
2023/02/09 19:52:56;;;;;;;40.10;21.20;;;;;;;-1.89;67.29;102035.95;107401;1256;82391;-59
2023/02/09 19:55:37;;;;;;;41.80;22.10;;;;;;;-1.90;67.34;102043.23;107378;1259;82696;-59
2023/02/09 19:58:13;;;;;;;37.40;20.70;;;;;;;-1.88;67.28;102034.50;107387;1260;95960;-58
2023/02/09 20:00:52;;;;;;;41.40;21.70;;;;;;;-1.86;67.34;102026.63;107367;1257;87314;-58
2023/02/09 20:03:31;;;;;;;41.20;21.40;;;;;;;-1.82;67.47;102019.75;107384;1257;93310;-59
2023/02/09 20:06:12;;;;;;;41.10;21.40;;;;;;;-1.81;67.65;102020.23;107359;1259;79869;-60
2023/02/09 20:08:54;;;;;;;39.30;20.50;;;;;;;-1.80;67.61;102021.23;107239;1261;81439;-59
2023/02/09 20:11:37;;;;;;;46.40;23.80;;;;;;;-1.76;67.49;102021.96;107294;1262;94527;-59
2023/02/09 20:14:17;;;;;;;37.30;20.30;;;;;;;-1.76;67.40;102014.17;107313;1257;86353;-58
2023/02/09 21:38:30;;;;;;;34.90;19.10;;;;;;;-1.59;68.40;101979.82;103839;1296;600956;-59
2023/02/09 21:42:24;;;;;;;35.80;17.50;;;;;;;-1.64;68.37;101986.59;106655;1267;80904;-59
2023/02/09 21:44:21;;;;;;;36.60;18.40;;;;;;;-1.63;68.38;101986.02;106716;1269;82534;-60
2023/02/09 21:47:04;;;;;;;35.70;19.20;;;;;;;-1.63;68.31;101976.30;106706;1266;95488;-60
2023/02/09 21:49:46;;;;;;;37.90;18.80;;;;;;;-1.61;68.16;101973.55;106709;1268;89285;-60
2023/02/09 21:52:25;;;;;;;36.10;18.30;;;;;;;-1.59;68.13;101972.37;106395;1263;496367;-60
2023/02/09 21:55:07;;;;;;;35.80;19.80;;;;;;;-1.55;68.15;101976.27;106837;1266;79841;-56
2023/02/09 21:57:51;;;;;;;39.10;19.80;;;;;;;-1.53;68.22;101980.20;106852;1263;81819;-57
2023/02/09 22:00:33;;;;;;;37.30;19.60;;;;;;;-1.50;68.27;101977.77;106817;1263;96948;-57
2023/02/09 22:03:09;;;;;;;35.80;18.50;;;;;;;-1.45;68.27;101970.27;106871;1264;88976;-59
2023/02/09 22:05:55;;;;;;;39.70;19.30;;;;;;;-1.42;68.27;101976.82;106876;1263;94749;-61
2023/02/09 22:08:34;;;;;;;32.50;18.20;;;;;;;-1.41;68.34;101984.73;106844;1266;79925;-62
2023/02/09 22:11:16;;;;;;;40.80;20.10;;;;;;;-1.41;68.13;101982.11;106841;1263;82289;-61
2023/02/09 22:14:02;;;;;;;38.80;20.90;;;;;;;-1.39;68.09;101982.50;106870;1264;96629;-60
2023/02/09 22:16:42;;;;;;;42.90;20.90;;;;;;;-1.41;68.16;101983.85;106813;1266;88698;-61
2023/02/09 22:19:20;;;;;;;38.20;18.80;;;;;;;-1.45;68.07;101981.75;106828;1264;94843;-63
2023/02/09 22:22:01;;;;;;;35.20;18.80;;;;;;;-1.47;68.15;101981.70;106842;1263;79005;-63
2023/02/09 22:24:47;;;;;;;35.50;18.50;;;;;;;-1.50;68.20;101983.08;106861;1263;80163;-60
2023/02/09 22:27:22;;;;;;;39.80;20.40;;;;;;;-1.53;68.37;101980.23;106819;1264;97321;-58
2023/02/09 22:29:59;;;;;;;40.20;19.70;;;;;;;-1.56;68.35;101981.42;106742;1268;91448;-57
2023/02/09 22:32:38;;;;;;;35.20;18.20;;;;;;;-1.59;68.23;101978.21;106826;1266;95476;-59
2023/02/09 22:35:14;;;;;;;34.60;20.10;;;;;;;-1.63;68.41;101978.96;106820;1266;79771;-60
2023/02/09 22:37:55;;;;;;;30.50;17.20;;;;;;;-1.67;68.40;101969.59;106891;1263;80719;-56
2023/02/09 22:40:39;;;;;;;38.20;20.20;;;;;;;-1.68;68.68;101965.77;106929;1265;97587;-57
2023/02/09 22:43:17;;;;;;;37.20;19.80;;;;;;;-1.68;68.69;101961.17;106957;1265;89072;-57
2023/02/09 22:46:00;;;;;;;33.20;18.00;;;;;;;-1.69;68.88;101965.30;106952;1264;95397;-56
2023/02/09 22:48:44;;;;;;;40.10;19.40;;;;;;;-1.68;68.89;101965.41;106940;1265;82376;-57
2023/02/09 22:51:24;;;;;;;36.50;20.20;;;;;;;-1.67;68.80;101971.71;106889;1265;82632;-57
2023/02/09 22:54:02;;;;;;;35.40;18.70;;;;;;;-1.62;68.87;101964.95;106939;1264;97439;-60
2023/02/09 22:56:36;;;;;;;36.40;19.50;;;;;;;-1.59;68.94;101963.18;107262;1257;87507;-61
2023/02/09 22:59:12;;;;;;;;;;;;;;;-1.58;69.16;101965.78;107259;1257;95614;-56
2023/02/09 23:01:55;;;;;;;34.50;18.20;;;;;;;-1.55;68.93;101960.01;107253;1257;78759;-57
2023/02/09 23:04:34;;;;;;;33.10;17.80;;;;;;;-1.58;68.88;101954.31;107259;1259;82352;-55
2023/02/09 23:07:17;;;;;;;33.70;17.00;;;;;;;-1.61;69.10;101954.83;107215;1257;98048;-55
2023/02/09 23:09:54;;;;;;;34.10;19.70;;;;;;;-1.65;69.15;101955.20;107253;1261;89021;-57
2023/02/09 23:12:38;;;;;;;36.90;18.50;;;;;;;-1.67;69.13;101959.55;107254;1257;95605;-57
2023/02/09 23:15:20;;;;;;;34.40;18.60;;;;;;;-1.71;69.27;101959.54;107231;1262;80856;-57
2023/02/09 23:18:00;;;;;;;36.50;19.40;;;;;;;-1.74;69.40;101959.54;107095;1262;82679;-59